Chicago, IL - ORD

Touching down in the Windy City

The Chicago O'Hare International Airport is affectionately known as "O'Hare" and is in a constant battle with ATL - Atlanta Hartsfield-Jackson as the busiest airport in the United States. Boasting a very impressive list of over 225 destinations with it's 8 runways makes it extremely impressive to say the least. AAG operates over 45% of the total passenger share out of ORD.

ORD Based Pilots: 19   Miles to ORD: 260692
Flights from ORD: 367   Total Hours: 1416.49
Routes using ORD: 2161   From ORD: 714.16
Total Miles: 529532   Hours To ORD: 702.33
Miles from ORD: 268840   ORD Charts: Click Here
VATSIM METAR: KORD 012051Z 21009KT 10SM OVC014 08/04 A2977 RMK AO2 SLP086 T00830044 58030
 
         
View More: Click Here
   

 

Earn Your Wings

Interested in joining our ORD hub? Hover for more!

Your journey starts here. Your journey starts now. A whole new experience is at your fingertips.

Like what you see and ready to join the team?

A rewarding and memorable virtual airline experience awaits!